Time;durP1;ratioP1;P1;durP2;ratioP2;P2;SDS_P1;SDS_P2;PMS_P1;PMS_P2;Temp;Humidity;BMP_temperature;BMP_pressure;BME280_temperature;BME280_humidity;BME280_pressure;Samples;Min_cycle;Max_cycle;Signal;HPM_P1;HPM_P2
2022/12/24 00:00:07;;;;;;;10.93;2.00;;;;;;;10.40;100.00;99659.13;5091148;28;20122;-72
2022/12/24 00:02:33;;;;;;;11.75;2.50;;;;;;;10.19;100.00;99645.38;5081563;28;20105;-73
2022/12/24 00:05:00;;;;;;;10.35;2.15;;;;;;;10.25;100.00;99665.31;5094016;28;20395;-73
2022/12/24 00:07:28;;;;;;;8.98;2.00;;;;;;;10.08;100.00;99659.16;5089961;28;20071;-73
2022/12/24 00:09:55;;;;;;;7.60;2.47;;;;;;;10.16;100.00;99670.16;5086561;28;20150;-73
2022/12/24 00:12:21;;;;;;;9.00;2.25;;;;;;;10.14;100.00;99671.19;5092865;28;20044;-73
2022/12/24 00:14:48;;;;;;;15.02;2.22;;;;;;;10.11;100.00;99663.41;5086938;28;20399;-73
2022/12/24 00:17:15;;;;;;;8.98;1.67;;;;;;;10.03;100.00;99655.94;5079502;28;20494;-73
2022/12/24 00:19:42;;;;;;;10.68;2.08;;;;;;;10.02;100.00;99651.59;5088811;28;20113;-73
2022/12/24 00:22:09;;;;;;;11.20;2.55;;;;;;;10.17;100.00;99679.81;5086600;28;20116;-72
2022/12/24 00:24:35;;;;;;;11.23;2.28;;;;;;;10.04;100.00;99651.50;5081154;28;20059;-71
2022/12/24 00:27:02;;;;;;;10.80;2.03;;;;;;;10.16;100.00;99682.53;5080036;28;20058;-72
2022/12/24 00:29:29;;;;;;;12.00;1.98;;;;;;;10.03;100.00;99670.94;5086821;28;20070;-72
2022/12/24 00:31:55;;;;;;;12.43;2.33;;;;;;;10.11;100.00;99674.84;5078246;28;20054;-71
2022/12/24 00:34:23;;;;;;;9.23;1.80;;;;;;;10.18;100.00;99693.91;5083289;28;20507;-71
2022/12/24 00:36:50;;;;;;;11.25;2.10;;;;;;;10.10;100.00;99677.59;5086783;28;20445;-71
2022/12/24 00:39:17;;;;;;;10.23;2.00;;;;;;;10.16;100.00;99699.28;5081368;28;20113;-72
2022/12/24 00:41:43;;;;;;;9.68;1.75;;;;;;;10.02;100.00;99670.09;5085798;28;20044;-72
2022/12/24 00:44:10;;;;;;;9.02;1.85;;;;;;;10.13;100.00;99694.16;5081063;27;20507;-72
2022/12/24 00:46:40;;;;;;;7.68;1.65;;;;;;;10.13;100.00;99702.09;5084494;28;20076;-72
2022/12/24 00:49:07;;;;;;;10.70;2.63;;;;;;;10.16;100.00;99701.91;5087473;28;20501;-72
2022/12/24 00:51:35;;;;;;;9.70;1.75;;;;;;;10.21;100.00;99698.19;5085169;28;20060;-72
2022/12/24 00:54:02;;;;;;;11.05;2.00;;;;;;;10.24;100.00;99704.16;5084641;28;20048;-74
2022/12/24 00:56:29;;;;;;;8.68;2.35;;;;;;;10.22;100.00;99700.75;5085378;28;20052;-72
2022/12/24 00:58:56;;;;;;;10.82;2.15;;;;;;;10.45;100.00;99700.28;5085952;28;20054;-72
2022/12/24 01:01:26;;;;;;;9.70;2.15;;;;;;;10.40;100.00;99710.28;5081499;28;20048;-72
2022/12/24 01:05:09;;;;;;;11.55;2.42;;;;;;;10.32;100.00;99703.72;5082962;28;20051;-71
2022/12/24 01:06:39;;;;;;;10.60;2.10;;;;;;;10.38;100.00;99709.53;5084176;28;20565;-74
2022/12/24 01:09:06;;;;;;;9.88;2.05;;;;;;;10.30;100.00;99716.19;5079792;28;20047;-71
2022/12/24 01:11:33;;;;;;;8.85;1.92;;;;;;;10.44;100.00;99721.56;5089152;28;20105;-74
2022/12/24 01:14:00;;;;;;;8.48;2.00;;;;;;;10.37;100.00;99710.47;5089161;28;20048;-72
2022/12/24 01:16:26;;;;;;;13.45;2.53;;;;;;;10.42;100.00;99721.63;5086442;28;20067;-71
2022/12/24 01:18:53;;;;;;;11.05;2.30;;;;;;;10.58;100.00;99736.63;5083107;28;20056;-73
2022/12/24 01:21:20;;;;;;;11.30;2.40;;;;;;;10.54;100.00;99746.56;5080967;28;20044;-72
2022/12/24 01:23:46;;;;;;;9.15;2.00;;;;;;;10.45;100.00;99749.72;5090117;28;20131;-73
2022/12/24 01:26:13;;;;;;;9.85;2.55;;;;;;;10.43;100.00;99762.19;5086865;27;20052;-72
2022/12/24 01:28:40;;;;;;;13.52;2.30;;;;;;;10.49;100.00;99772.44;5078876;28;20131;-71
2022/12/24 01:31:14;;;;;;;12.55;2.20;;;;;;;10.35;100.00;99773.22;5078556;28;20047;-72
2022/12/24 01:33:42;;;;;;;12.18;2.53;;;;;;;10.27;100.00;99780.72;5071844;28;20055;-72
2022/12/24 01:36:09;;;;;;;10.52;1.80;;;;;;;10.22;100.00;99785.44;5077679;28;20057;-72
2022/12/24 01:38:36;;;;;;;9.95;1.90;;;;;;;10.16;100.00;99794.53;5067909;28;20048;-73
2022/12/24 01:43:48;;;;;;;9.65;2.22;;;;;;;10.09;100.00;99798.41;5080714;28;20075;-72
2022/12/24 01:46:24;;;;;;;9.75;1.63;;;;;;;10.09;100.00;99809.00;5077284;28;20561;-71
2022/12/24 01:49:03;;;;;;;9.80;2.25;;;;;;;10.05;100.00;99807.50;5077894;28;20052;-72
2022/12/24 01:51:36;;;;;;;11.25;2.22;;;;;;;10.04;100.00;99811.06;5082816;28;20147;-73
2022/12/24 01:54:08;;;;;;;11.90;2.28;;;;;;;10.05;100.00;99811.91;5074989;28;20132;-72
2022/12/24 01:56:42;;;;;;;13.50;2.20;;;;;;;10.06;100.00;99825.06;5075231;28;20135;-72
2022/12/24 01:59:12;;;;;;;12.93;1.60;;;;;;;10.05;100.00;99823.34;5079056;27;20373;-72
2022/12/24 02:01:40;;;;;;;10.73;1.83;;;;;;;10.15;100.00;99829.00;5069100;28;20143;-71
2022/12/24 02:04:29;;;;;;;10.88;2.33;;;;;;;10.13;100.00;99826.44;5088442;28;20483;-73
2022/12/24 02:06:58;;;;;;;7.00;1.80;;;;;;;10.09;100.00;99829.31;5078290;28;20503;-71
2022/12/24 02:09:25;;;;;;;9.40;2.20;;;;;;;10.25;100.00;99834.66;5081893;28;20075;-72
2022/12/24 02:11:52;;;;;;;11.98;2.47;;;;;;;10.16;100.00;99834.22;5079363;28;20053;-72
2022/12/24 02:14:19;;;;;;;10.50;2.40;;;;;;;10.11;100.00;99830.94;5082823;28;20052;-74
2022/12/24 02:17:11;;;;;;;11.90;2.30;;;;;;;10.09;100.00;99840.75;5078013;28;20044;-72
2022/12/24 02:20:30;;;;;;;9.98;2.33;;;;;;;10.08;100.00;99849.63;5073559;28;20044;-74
2022/12/24 02:23:16;;;;;;;10.95;2.00;;;;;;;9.91;100.00;99825.03;5066150;28;21050;-72
2022/12/24 02:25:57;;;;;;;10.70;1.77;;;;;;;9.91;100.00;99847.06;5081532;28;20139;-73
2022/12/24 02:29:00;;;;;;;11.98;2.20;;;;;;;9.88;100.00;99851.63;5084258;28;20080;-73
2022/12/24 02:31:37;;;;;;;11.00;2.50;;;;;;;9.84;100.00;99843.00;5083361;28;20048;-73
2022/12/24 02:34:30;;;;;;;12.15;2.08;;;;;;;9.86;100.00;99854.34;5082677;28;20070;-72
2022/12/24 02:37:03;;;;;;;12.10;2.65;;;;;;;9.84;100.00;99845.66;5085333;28;20666;-72
2022/12/24 02:39:42;;;;;;;10.50;1.75;;;;;;;9.94;100.00;99861.88;5078389;28;20055;-72
2022/12/24 02:42:11;;;;;;;14.45;2.47;;;;;;;10.00;100.00;99866.84;5085305;28;20066;-73
2022/12/24 02:44:56;;;;;;;14.07;1.92;;;;;;;10.02;100.00;99864.97;5083044;28;20052;-73
2022/12/24 02:47:26;;;;;;;10.05;2.40;;;;;;;10.08;100.00;99859.34;5081521;28;20479;-73
2022/12/24 02:49:53;;;;;;;14.82;1.92;;;;;;;10.09;100.00;99866.34;5086182;28;20055;-73
2022/12/24 02:52:30;;;;;;;13.27;2.40;;;;;;;10.12;100.00;99867.03;5079086;28;20102;-73
2022/12/24 02:55:00;;;;;;;11.30;1.90;;;;;;;10.13;100.00;99865.25;5087772;28;20047;-72
2022/12/24 02:57:32;;;;;;;13.23;2.35;;;;;;;10.12;100.00;99867.03;5077656;28;20051;-72
2022/12/24 03:00:06;;;;;;;12.85;2.28;;;;;;;10.08;100.00;99876.06;5080379;28;20067;-73
2022/12/24 03:03:02;;;;;;;13.25;2.35;;;;;;;10.04;100.00;99863.13;5071749;28;20082;-73
2022/12/24 03:05:41;;;;;;;9.65;1.90;;;;;;;10.07;100.00;99881.47;5080963;28;20048;-73
2022/12/24 03:08:42;;;;;;;15.55;2.65;;;;;;;10.08;100.00;99893.75;5077483;28;20044;-72
2022/12/24 03:11:12;;;;;;;13.10;2.53;;;;;;;10.05;100.00;99892.13;5084093;28;20044;-73
2022/12/24 03:13:40;;;;;;;12.27;2.20;;;;;;;10.06;100.00;99904.44;5084603;28;20159;-73
2022/12/24 03:16:10;;;;;;;12.60;2.20;;;;;;;10.10;100.00;99900.66;5080176;28;20388;-72
2022/12/24 03:18:41;;;;;;;12.45;2.22;;;;;;;10.16;100.00;99892.41;5077756;28;20080;-73
2022/12/24 03:21:25;;;;;;;13.90;2.67;;;;;;;10.12;100.00;99877.63;5081261;28;20040;-73
2022/12/24 03:23:51;;;;;;;15.02;2.67;;;;;;;10.27;100.00;99901.59;5082975;28;20126;-74
2022/12/24 03:26:19;;;;;;;17.80;2.40;;;;;;;10.15;100.00;99887.19;5092447;28;20134;-72
2022/12/24 03:28:46;;;;;;;17.35;2.70;;;;;;;10.28;100.00;99906.81;5084251;28;20101;-72
2022/12/24 03:31:13;;;;;;;11.32;2.20;;;;;;;10.17;100.00;99902.06;5085576;28;20255;-72
2022/12/24 03:33:40;;;;;;;12.18;2.00;;;;;;;10.23;100.00;99915.94;5086504;28;20530;-72
2022/12/24 03:36:08;;;;;;;13.95;2.67;;;;;;;10.23;100.00;99915.94;5084992;28;20052;-73
2022/12/24 03:38:35;;;;;;;10.68;2.10;;;;;;;10.25;100.00;99921.97;5075970;28;20311;-73
2022/12/24 03:41:02;;;;;;;15.02;2.58;;;;;;;10.29;100.00;99921.75;5090635;28;20044;-72
2022/12/24 03:43:29;;;;;;;12.43;2.10;;;;;;;10.22;100.00;99919.53;5080412;28;20055;-73
2022/12/24 03:45:55;;;;;;;15.35;2.30;;;;;;;10.34;100.00;99930.31;5080481;28;20582;-72
2022/12/24 03:48:22;;;;;;;13.18;2.67;;;;;;;10.37;100.00;99934.59;5082082;28;20126;-72
2022/12/24 03:50:57;;;;;;;12.70;2.17;;;;;;;10.26;100.00;99919.25;5085818;28;20083;-73
2022/12/24 03:53:24;;;;;;;12.30;2.33;;;;;;;10.39;100.00;99938.00;5082233;28;20500;-73
2022/12/24 03:55:53;;;;;;;6.88;1.58;;;;;;;10.40;100.00;99937.03;5080267;28;20060;-73
2022/12/24 03:58:19;;;;;;;14.38;2.00;;;;;;;10.30;100.00;99915.53;5078121;28;20127;-73
2022/12/24 04:00:46;;;;;;;13.30;1.98;;;;;;;10.39;100.00;99933.53;5082079;28;20143;-73
2022/12/24 04:03:12;;;;;;;10.70;1.75;;;;;;;10.38;100.00;99946.88;5090301;28;20181;-73
2022/12/24 04:05:39;;;;;;;11.38;2.28;;;;;;;10.38;100.00;99953.03;5090603;28;20095;-75
2022/12/24 04:08:06;;;;;;;9.65;1.80;;;;;;;10.24;100.00;99926.41;5086240;28;20109;-73
2022/12/24 04:10:32;;;;;;;15.10;2.53;;;;;;;10.31;100.00;99942.84;5084777;28;20496;-74
2022/12/24 04:12:59;;;;;;;7.00;1.70;;;;;;;10.30;100.00;99962.31;5090036;28;20081;-74
2022/12/24 04:15:26;;;;;;;9.10;2.05;;;;;;;10.28;100.00;99974.75;5088466;28;20044;-74
2022/12/24 04:17:52;;;;;;;8.55;1.67;;;;;;;10.27;100.00;99970.41;5072163;28;20059;-74
2022/12/24 04:20:19;;;;;;;11.20;1.90;;;;;;;10.15;100.00;99951.56;5088049;28;20048;-74
2022/12/24 04:22:45;;;;;;;11.90;1.98;;;;;;;10.23;100.00;99972.34;5077887;28;20044;-74
2022/12/24 04:25:12;;;;;;;10.20;1.83;;;;;;;10.22;100.00;99961.88;5088662;28;20048;-74
2022/12/24 04:27:39;;;;;;;10.95;1.92;;;;;;;10.31;100.00;99983.41;5085070;28;20564;-74
2022/12/24 04:30:06;;;;;;;8.40;1.77;;;;;;;10.30;100.00;99980.81;5088692;28;20147;-74
2022/12/24 04:32:32;;;;;;;13.00;2.15;;;;;;;10.27;100.00;99981.84;5079582;28;20071;-74
2022/12/24 04:34:59;;;;;;;11.20;1.77;;;;;;;10.12;100.00;99962.28;5083184;28;20110;-75
2022/12/24 04:37:25;;;;;;;12.38;1.95;;;;;;;10.31;100.00;99985.19;5082653;28;20563;-74
2022/12/24 04:39:52;;;;;;;10.40;2.15;;;;;;;10.33;100.00;99980.66;5088526;28;20441;-74
2022/12/24 04:42:19;;;;;;;12.88;2.40;;;;;;;10.33;100.00;99964.78;5087646;28;20048;-74
2022/12/24 04:44:45;;;;;;;11.27;2.05;;;;;;;10.33;100.00;99968.28;5083329;28;20095;-74
2022/12/24 04:47:12;;;;;;;9.27;2.00;;;;;;;10.35;100.00;99973.50;5086697;28;20135;-74
2022/12/24 04:49:38;;;;;;;19.27;2.03;;;;;;;10.31;100.00;99964.88;5082663;27;20118;-74
2022/12/24 04:52:05;;;;;;;15.50;2.78;;;;;;;10.34;100.00;99963.84;5078984;28;20138;-74
2022/12/24 04:54:31;;;;;;;10.00;2.33;;;;;;;10.48;100.00;99979.88;5085343;28;20636;-73
2022/12/24 04:56:58;;;;;;;13.50;2.28;;;;;;;10.39;100.00;99970.59;5082469;28;20119;-73
2022/12/24 04:59:25;;;;;;;12.20;1.95;;;;;;;10.36;100.00;99977.88;5082320;28;20135;-73
2022/12/24 05:01:51;;;;;;;10.85;2.40;;;;;;;10.35;100.00;99984.09;5081278;28;20055;-73
2022/12/24 05:04:18;;;;;;;10.18;2.10;;;;;;;10.26;100.00;99976.63;5085966;28;20052;-75
2022/12/24 05:06:45;;;;;;;12.38;2.28;;;;;;;10.27;100.00;99980.97;5087671;28;20051;-75
2022/12/24 05:09:11;;;;;;;12.88;2.05;;;;;;;10.22;100.00;99977.75;5086702;28;20128;-73
2022/12/24 05:11:38;;;;;;;9.13;2.20;;;;;;;10.23;100.00;99969.69;5083294;28;20045;-74
2022/12/24 05:14:05;;;;;;;11.55;2.03;;;;;;;10.13;100.00;99964.00;5086637;28;20426;-74
2022/12/24 05:16:32;;;;;;;12.70;2.40;;;;;;;10.13;100.00;99982.53;5080728;28;20049;-73
2022/12/24 05:18:58;;;;;;;16.52;2.70;;;;;;;10.08;100.00;99973.97;5078442;28;20052;-75
2022/12/24 05:21:25;;;;;;;13.80;2.25;;;;;;;10.10;100.00;99979.19;5082572;28;20176;-74
2022/12/24 05:26:37;;;;;;;11.60;1.98;;;;;;;9.90;100.00;99961.69;5083415;28;20580;-75
2022/12/24 05:29:06;;;;;;;11.07;1.90;;;;;;;9.84;100.00;99977.88;5087036;28;20130;-74
2022/12/24 05:31:33;;;;;;;9.70;2.28;;;;;;;9.88;100.00;99984.72;5081692;28;20131;-73
2022/12/24 05:34:02;;;;;;;10.07;2.17;;;;;;;9.76;100.00;99974.75;5086814;28;20864;-75
2022/12/24 05:36:28;;;;;;;10.57;2.55;;;;;;;9.87;100.00;99990.94;5089953;28;20096;-74
2022/12/24 05:38:57;;;;;;;14.60;2.60;;;;;;;9.77;100.00;99965.88;5087553;28;20527;-74
2022/12/24 05:41:24;;;;;;;14.00;1.88;;;;;;;9.79;100.00;99979.88;5081787;28;20055;-74
2022/12/24 05:43:51;;;;;;;15.02;2.33;;;;;;;9.76;100.00;99980.88;5084395;28;20048;-73
2022/12/24 05:46:19;;;;;;;8.98;1.90;;;;;;;9.66;100.00;99968.22;5078081;28;20044;-72
2022/12/24 05:48:47;;;;;;;15.38;2.20;;;;;;;9.76;100.00;99982.66;5082028;28;20098;-73
2022/12/24 05:51:18;;;;;;;12.52;2.25;;;;;;;9.77;100.00;99976.47;5084252;28;20041;-73
2022/12/24 05:53:45;;;;;;;15.77;2.83;;;;;;;9.79;100.00;99985.16;5089485;28;20434;-74
2022/12/24 05:56:15;;;;;;;10.02;2.13;;;;;;;9.83;100.00;99978.81;5086457;28;20111;-74
2022/12/24 05:58:42;;;;;;;11.75;2.08;;;;;;;9.87;100.00;99990.09;5078963;28;20063;-73
2022/12/24 06:01:10;;;;;;;12.55;2.20;;;;;;;9.89;100.00;99997.03;5093480;28;20486;-75
2022/12/24 06:03:37;;;;;;;12.88;2.10;;;;;;;9.91;100.00;100002.22;5082786;28;20047;-73
2022/12/24 06:06:07;;;;;;;16.40;2.70;;;;;;;9.94;100.00;99997.63;5090107;28;20184;-73
2022/12/24 06:08:34;;;;;;;16.17;2.38;;;;;;;9.95;100.00;100003.75;5086094;28;20052;-72
2022/12/24 06:11:04;;;;;;;10.40;2.25;;;;;;;9.94;100.00;99997.63;5082825;27;20063;-73
2022/12/24 06:13:32;;;;;;;10.48;1.85;;;;;;;9.93;100.00;100009.13;5075781;28;20048;-73
2022/12/24 06:16:01;;;;;;;6.60;1.77;;;;;;;9.96;100.00;100011.63;5073321;28;20067;-73
2022/12/24 06:18:29;;;;;;;14.00;2.53;;;;;;;9.98;100.00;100009.75;5079198;28;20094;-72
2022/12/24 06:20:58;;;;;;;15.02;2.50;;;;;;;9.98;100.00;100008.91;5085011;28;20062;-73
2022/12/24 06:23:28;;;;;;;12.13;2.10;;;;;;;10.01;100.00;100012.25;5084618;27;20109;-72
2022/12/24 06:25:57;;;;;;;11.40;2.53;;;;;;;10.05;100.00;100013.81;5084175;28;20040;-73
2022/12/24 06:28:24;;;;;;;11.55;2.85;;;;;;;9.99;100.00;100008.84;5077951;28;20051;-73
2022/12/24 06:30:50;;;;;;;11.55;1.83;;;;;;;10.03;100.00;100014.84;5076339;28;20044;-72
2022/12/24 06:33:22;;;;;;;10.18;1.95;;;;;;;9.96;100.00;100011.63;5077899;28;20047;-74
2022/12/24 06:35:49;;;;;;;18.95;2.38;;;;;;;10.03;100.00;100023.63;5086545;28;20055;-74
2022/12/24 06:38:15;;;;;;;8.00;2.03;;;;;;;10.04;100.00;100027.97;5087263;28;20954;-72
2022/12/24 06:40:44;;;;;;;10.32;2.13;;;;;;;9.99;100.00;100030.00;5078808;28;20226;-71
2022/12/24 06:43:12;;;;;;;14.32;2.55;;;;;;;9.97;100.00;100034.50;5076442;28;20346;-75
2022/12/24 06:45:43;;;;;;;8.40;1.77;;;;;;;9.91;100.00;100024.25;5073698;28;20062;-73
2022/12/24 06:48:09;;;;;;;8.88;2.20;;;;;;;9.97;100.00;100031.84;5087763;28;20067;-73
2022/12/24 06:50:36;;;;;;;13.05;2.45;;;;;;;10.01;100.00;100043.16;5090087;28;20500;-73
2022/12/24 06:53:03;;;;;;;18.08;3.08;;;;;;;9.97;100.00;100047.72;5085259;28;20529;-72
2022/12/24 06:55:29;;;;;;;10.70;2.55;;;;;;;9.91;100.00;100045.41;5086049;28;20087;-75
2022/12/24 06:57:56;;;;;;;13.18;2.67;;;;;;;9.76;100.00;100023.19;5075510;27;20066;-72
2022/12/24 07:00:23;;;;;;;11.30;2.65;;;;;;;9.93;100.00;100048.81;5078941;28;20048;-75
2022/12/24 07:02:49;;;;;;;18.90;2.72;;;;;;;9.93;100.00;100056.75;5084850;28;20075;-72
2022/12/24 07:05:16;;;;;;;18.88;2.83;;;;;;;9.96;100.00;100063.66;5081473;28;20779;-71
2022/12/24 07:07:44;;;;;;;17.73;3.13;;;;;;;9.93;100.00;100061.16;5084155;28;20051;-74
2022/12/24 07:10:14;;;;;;;16.20;2.85;;;;;;;9.92;100.00;100073.53;5086158;28;20066;-72
2022/12/24 07:12:41;;;;;;;17.00;2.90;;;;;;;9.88;100.00;100061.41;5084304;28;20056;-74
2022/12/24 07:15:09;;;;;;;15.75;3.25;;;;;;;9.80;100.00;100053.84;5072921;28;20048;-73
2022/12/24 07:17:36;;;;;;;15.43;2.78;;;;;;;9.87;100.00;100057.06;5077913;28;20310;-73
2022/12/24 07:20:04;;;;;;;15.45;2.53;;;;;;;9.98;100.00;100077.69;5088413;28;20396;-72
2022/12/24 07:22:30;;;;;;;21.08;3.65;;;;;;;9.96;100.00;100077.75;5088132;28;20473;-73
2022/12/24 07:24:57;;;;;;;13.90;3.10;;;;;;;9.95;100.00;100091.06;5087973;28;20049;-72
2022/12/24 07:27:24;;;;;;;15.57;2.85;;;;;;;10.02;100.00;100103.91;5085576;28;20044;-72
2022/12/24 07:29:50;;;;;;;14.70;2.88;;;;;;;10.02;100.00;100103.91;5087727;28;20055;-72
2022/12/24 07:32:19;;;;;;;13.18;2.88;;;;;;;10.03;100.00;100102.97;5081610;28;20050;-73
2022/12/24 07:34:46;;;;;;;11.40;2.67;;;;;;;10.05;100.00;100110.84;5077982;27;20145;-73
2022/12/24 07:37:12;;;;;;;18.38;3.13;;;;;;;10.07;100.00;100114.28;5083792;28;20072;-73
2022/12/24 07:39:39;;;;;;;18.52;3.10;;;;;;;10.13;100.00;100114.81;5088518;28;20048;-72
2022/12/24 07:42:07;;;;;;;26.45;4.63;;;;;;;10.09;100.00;100109.75;5088899;28;20169;-72
2022/12/24 07:44:33;;;;;;;23.00;3.95;;;;;;;10.16;100.00;100122.59;5090683;28;20157;-73
2022/12/24 07:47:00;;;;;;;19.98;3.22;;;;;;;10.16;100.00;100119.97;5085312;28;21389;-73
2022/12/24 07:49:27;;;;;;;22.95;3.55;;;;;;;10.01;100.00;100096.91;5081579;28;20044;-75
2022/12/24 07:51:54;;;;;;;17.45;2.80;;;;;;;10.14;100.00;100118.31;5088578;28;20419;-73
2022/12/24 07:54:21;;;;;;;18.10;3.05;;;;;;;10.11;100.00;100116.69;5091032;28;20051;-72
2022/12/24 07:56:47;;;;;;;20.33;3.47;;;;;;;10.16;100.00;100122.59;5085667;28;20124;-72
2022/12/24 07:59:14;;;;;;;18.73;2.83;;;;;;;10.18;100.00;100131.38;5092791;28;20059;-74
2022/12/24 08:01:41;;;;;;;16.38;3.38;;;;;;;10.15;100.00;100141.19;5086444;28;20375;-75
2022/12/24 08:04:08;;;;;;;20.63;3.20;;;;;;;10.13;100.00;100132.47;5084652;28;20148;-74
2022/12/24 08:06:35;;;;;;;24.52;3.63;;;;;;;10.13;100.00;100133.34;5091856;28;20076;-74
2022/12/24 08:09:02;;;;;;;22.40;3.78;;;;;;;10.23;100.00;100151.47;5091452;28;20490;-72
2022/12/24 08:11:29;;;;;;;24.02;4.18;;;;;;;10.22;100.00;100155.03;5090326;28;20169;-73
2022/12/24 08:13:55;;;;;;;18.30;3.60;;;;;;;10.19;100.00;100163.97;5084318;28;20072;-72
2022/12/24 08:16:22;;;;;;;22.98;3.58;;;;;;;10.19;100.00;100174.56;5087492;28;20044;-73
2022/12/24 08:18:48;;;;;;;19.88;3.53;;;;;;;10.16;100.00;100159.66;5089798;28;20056;-71
2022/12/24 08:21:15;;;;;;;21.35;3.85;;;;;;;10.26;100.00;100167.16;5090896;28;20040;-75
2022/12/24 08:23:45;;;;;;;20.33;3.47;;;;;;;10.21;100.00;100154.19;5086394;28;20071;-75
2022/12/24 08:26:11;;;;;;;18.17;3.90;;;;;;;10.22;100.00;100152.38;5085429;28;20039;-74
2022/12/24 08:28:38;;;;;;;19.98;4.05;;;;;;;10.30;100.00;100161.66;5082311;28;20044;-73
2022/12/24 08:31:05;;;;;;;16.90;3.40;;;;;;;10.31;100.00;100162.50;5084403;28;20551;-72
2022/12/24 08:33:32;;;;;;;20.83;3.53;;;;;;;10.24;100.00;100138.13;5076833;28;20151;-74
2022/12/24 08:36:00;;;;;;;20.30;4.00;;;;;;;10.33;100.00;100158.00;5084300;28;20055;-72
2022/12/24 08:38:28;;;;;;;23.58;3.55;;;;;;;10.18;100.00;100141.94;5083505;28;20519;-73
2022/12/24 08:40:55;;;;;;;17.15;3.25;;;;;;;10.36;100.00;100179.88;5082632;28;20040;-72
2022/12/24 08:43:22;;;;;;;17.63;3.83;;;;;;;10.33;100.00;100182.69;5084386;28;20040;-73
2022/12/24 08:45:48;;;;;;;18.60;4.63;;;;;;;10.28;100.00;100183.81;5086080;28;20054;-72
2022/12/24 08:48:16;;;;;;;24.33;4.10;;;;;;;10.05;100.00;100171.69;5084942;28;20059;-72
2022/12/24 08:50:43;;;;;;;17.08;3.67;;;;;;;10.09;100.00;100199.69;5085219;27;20048;-73
2022/12/24 08:53:10;;;;;;;25.20;4.15;;;;;;;10.02;100.00;100209.72;5083243;28;20131;-74
2022/12/24 08:55:38;;;;;;;26.02;4.35;;;;;;;9.90;100.00;100212.09;5082307;28;20048;-72
2022/12/24 08:58:05;;;;;;;24.13;3.97;;;;;;;9.76;100.00;100200.34;5084257;28;20064;-72
2022/12/24 09:00:31;;;;;;;24.25;4.22;;;;;;;9.70;100.00;100210.38;5075245;28;20056;-73
2022/12/24 09:02:59;;;;;;;19.95;3.65;;;;;;;9.78;100.00;100217.03;5079333;28;20119;-73
2022/12/24 09:05:26;;;;;;;23.58;4.35;;;;;;;9.85;100.00;100214.97;5077933;28;20100;-73
2022/12/24 09:07:53;;;;;;;17.40;4.00;;;;;;;9.78;100.00;100211.72;5074652;28;20131;-72
2022/12/24 09:10:20;;;;;;;21.23;4.55;;;;;;;9.81;100.00;100208.09;5077324;28;20054;-72
2022/12/24 09:12:46;;;;;;;28.42;5.40;;;;;;;9.82;100.00;100228.31;5081148;28;20146;-73
2022/12/24 09:15:13;;;;;;;25.88;4.55;;;;;;;9.88;100.00;100230.69;5076564;28;20066;-75
2022/12/24 09:17:40;;;;;;;26.10;4.40;;;;;;;9.70;100.00;100213.03;5079015;28;20054;-73
2022/12/24 09:20:08;;;;;;;26.08;4.22;;;;;;;9.73;100.00;100229.63;5080167;28;20122;-74
2022/12/24 09:22:36;;;;;;;25.45;4.35;;;;;;;9.83;100.00;100241.47;5079219;28;20048;-72
2022/12/24 09:25:05;;;;;;;25.98;4.40;;;;;;;9.92;100.00;100244.59;5075505;28;20282;-73
2022/12/24 09:27:31;;;;;;;16.63;3.60;;;;;;;9.90;100.00;100231.47;5079465;28;20044;-73
2022/12/24 09:29:58;;;;;;;19.75;3.90;;;;;;;10.22;100.00;100240.56;5078447;28;20488;-74
2022/12/24 09:32:24;;;;;;;19.75;4.13;;;;;;;10.38;100.00;100236.25;5071333;28;20052;-73
2022/12/24 09:34:51;;;;;;;19.30;4.45;;;;;;;10.55;100.00;100235.41;5080687;28;20151;-72
2022/12/24 09:37:18;;;;;;;21.77;4.70;;;;;;;10.52;100.00;100241.72;5079559;28;20090;-72
2022/12/24 09:39:44;;;;;;;23.38;4.35;;;;;;;10.59;100.00;100258.16;5077279;28;20080;-76
2022/12/24 09:42:44;;;;;;;26.30;5.38;;;;;;;10.50;100.00;100250.69;5076182;28;20056;-76
2022/12/24 09:45:28;;;;;;;22.55;4.40;;;;;;;10.40;100.00;100250.25;5069447;28;20059;-74
2022/12/24 09:48:02;;;;;;;24.50;4.20;;;;;;;10.22;100.00;100245.00;5071948;28;20405;-74
2022/12/24 09:50:45;;;;;;;20.55;4.47;;;;;;;10.01;100.00;100260.91;5071477;28;20082;-74
2022/12/24 09:53:19;;;;;;;23.90;4.35;;;;;;;9.84;100.00;100261.69;5072999;28;20048;-74
2022/12/24 09:55:51;;;;;;;25.95;4.75;;;;;;;9.76;100.00;100263.81;5071847;28;20515;-74
2022/12/24 09:58:26;;;;;;;27.75;5.03;;;;;;;9.75;100.00;100269.22;5081805;28;20132;-73
2022/12/24 10:00:54;;;;;;;26.50;4.88;;;;;;;9.78;100.00;100274.34;5069794;28;20045;-74
2022/12/24 10:03:21;;;;;;;26.85;5.65;;;;;;;9.72;100.00;100275.50;5067004;28;20192;-73
2022/12/24 10:05:59;;;;;;;27.83;5.53;;;;;;;9.74;100.00;100271.00;5071061;28;20059;-73
2022/12/24 10:08:35;;;;;;;22.90;4.75;;;;;;;9.53;100.00;100242.00;5073733;28;20139;-72
2022/12/24 10:11:44;;;;;;;16.77;4.25;;;;;;;9.69;100.00;100282.69;5078947;28;20052;-76
2022/12/24 10:14:33;;;;;;;25.92;4.80;;;;;;;9.67;100.00;100268.69;5066912;28;20052;-72
2022/12/24 10:17:17;;;;;;;20.63;4.32;;;;;;;9.65;100.00;100284.63;5072601;28;20040;-72
2022/12/24 10:20:12;;;;;;;27.83;5.38;;;;;;;9.63;100.00;100283.81;5076569;28;20143;-73
2022/12/24 10:23:03;;;;;;;24.60;5.45;;;;;;;9.67;100.00;100297.78;5073567;28;20050;-73
2022/12/24 10:25:41;;;;;;;32.45;5.43;;;;;;;9.74;100.00;100288.66;5076392;28;20056;-72
2022/12/24 10:28:15;;;;;;;27.65;5.72;;;;;;;9.85;100.00;100283.72;5074135;28;20047;-72
2022/12/24 10:30:47;;;;;;;27.30;6.53;;;;;;;9.90;100.00;100287.03;5073008;28;20051;-73
2022/12/24 10:33:19;;;;;;;29.38;5.30;;;;;;;10.00;100.00;100290.94;5069037;28;20086;-72
2022/12/24 10:35:50;;;;;;;26.85;5.47;;;;;;;10.06;100.00;100295.09;5070977;28;20552;-73
2022/12/24 10:38:17;;;;;;;27.50;4.50;;;;;;;10.18;100.00;100295.41;5071761;28;20052;-73
2022/12/24 10:40:47;;;;;;;19.92;5.15;;;;;;;10.19;100.00;100297.13;5066995;28;20077;-71
2022/12/24 10:43:19;;;;;;;28.27;5.90;;;;;;;10.28;100.00;100297.63;5070838;28;20054;-73
2022/12/24 10:45:49;;;;;;;28.77;5.13;;;;;;;10.31;100.00;100279.81;5066526;28;20105;-74
2022/12/24 10:48:29;;;;;;;38.10;5.90;;;;;;;10.40;100.00;100294.38;5077488;28;20056;-72
2022/12/24 10:51:01;;;;;;;28.08;5.55;;;;;;;10.44;100.00;100288.03;5075314;28;20447;-74
2022/12/24 10:53:43;;;;;;;27.08;5.40;;;;;;;10.45;100.00;100292.38;5075145;28;20045;-71
2022/12/24 10:56:12;;;;;;;23.13;4.57;;;;;;;10.41;100.00;100296.09;5072125;28;20059;-71
2022/12/24 10:58:44;;;;;;;23.92;4.45;;;;;;;10.42;100.00;100282.81;5073750;28;20052;-73
2022/12/24 11:01:12;;;;;;;29.65;4.88;;;;;;;10.47;100.00;100291.38;5071242;28;20040;-72
2022/12/24 11:03:38;;;;;;;23.50;4.80;;;;;;;10.50;100.00;100293.91;5072972;28;20058;-73
2022/12/24 11:06:08;;;;;;;19.92;4.65;;;;;;;10.49;100.00;100280.72;5075559;28;20511;-73
2022/12/24 11:08:38;;;;;;;27.02;5.07;;;;;;;10.66;100.00;100299.31;5081173;28;20493;-72
2022/12/24 11:11:12;;;;;;;30.20;5.55;;;;;;;10.61;100.00;100277.47;5070475;28;20056;-72
2022/12/24 11:13:40;;;;;;;30.63;5.22;;;;;;;10.71;100.00;100299.91;5072535;28;20457;-73
2022/12/24 11:16:28;;;;;;;24.30;4.78;;;;;;;10.67;100.00;100298.38;5080459;28;20548;-73
2022/12/24 11:18:57;;;;;;;23.15;4.68;;;;;;;10.72;100.00;100304.28;5079326;28;20049;-72
2022/12/24 11:21:24;;;;;;;22.33;4.65;;;;;;;10.75;100.00;100296.19;5077586;28;20040;-73
2022/12/24 11:23:54;;;;;;;30.13;5.20;;;;;;;10.82;100.00;100294.97;5075221;28;20044;-72
2022/12/24 11:26:22;;;;;;;;;;;;;;;10.82;100.00;100296.75;5078792;28;20070;-72
2022/12/24 11:29:18;;;;;;;20.40;4.78;;;;;;;10.85;100.00;100299.25;5086108;28;19970;-74
2022/12/24 11:31:46;;;;;;;19.40;4.60;;;;;;;10.88;100.00;100299.09;5079622;28;20049;-72
2022/12/24 11:34:23;;;;;;;22.83;4.75;;;;;;;10.94;100.00;100297.94;5086025;28;20052;-72